createdAt,value
2019-05-02T00:01:56.012Z,51.88
2019-05-02T00:04:26.016Z,49.60
2019-05-02T00:07:08.411Z,50.25
2019-05-02T00:09:47.514Z,46.83
2019-05-02T00:12:15.522Z,44.48
2019-05-02T00:14:45.945Z,56.28
2019-05-02T00:17:20.211Z,49.30
2019-05-02T00:19:49.951Z,46.50
2019-05-02T00:22:20.110Z,49.40
2019-05-02T00:24:50.162Z,51.55
2019-05-02T00:27:20.064Z,52.83
2019-05-02T00:29:53.797Z,53.00
2019-05-02T00:34:51.582Z,45.75
2019-05-02T00:37:24.723Z,49.93
2019-05-02T00:42:22.426Z,52.43
2019-05-02T00:47:32.172Z,53.65
2019-05-02T00:50:06.254Z,53.52
2019-05-02T00:55:03.673Z,53.75
2019-05-02T00:57:33.494Z,54.80
2019-05-02T01:00:03.252Z,49.98
2019-05-02T01:02:40.543Z,52.15
2019-05-02T01:05:11.863Z,50.45
2019-05-02T01:07:41.655Z,53.23
2019-05-02T01:10:12.057Z,57.20
2019-05-02T01:12:44.397Z,56.10
2019-05-02T01:15:13.815Z,50.67
2019-05-02T01:17:43.631Z,51.35
2019-05-02T01:20:13.395Z,48.55
2019-05-02T01:22:47.055Z,49.33
2019-05-02T01:25:15.697Z,52.25
2019-05-02T01:28:03.989Z,48.60
2019-05-02T01:31:01.509Z,52.53
2019-05-02T01:33:41.833Z,51.05
2019-05-02T01:36:20.132Z,56.77
2019-05-02T01:38:50.766Z,53.27
2019-05-02T01:41:23.946Z,57.25
2019-05-02T01:46:24.074Z,49.65
2019-05-02T01:51:22.393Z,51.35
2019-05-02T01:53:52.205Z,52.35
2019-05-02T01:56:22.022Z,49.65
2019-05-02T01:58:53.149Z,50.28
2019-05-02T02:01:23.419Z,49.80
2019-05-02T02:03:53.218Z,52.60
2019-05-02T02:06:23.022Z,51.08
2019-05-02T02:08:52.907Z,47.15
2019-05-02T02:11:22.687Z,48.73
2019-05-02T02:13:52.526Z,46.98
2019-05-02T02:16:22.356Z,46.53
2019-05-02T02:18:59.005Z,46.28
2019-05-02T02:21:36.792Z,47.35
2019-05-02T02:24:21.146Z,49.30
2019-05-02T02:26:49.886Z,47.80
2019-05-02T02:29:19.930Z,47.38
2019-05-02T02:31:49.701Z,48.95
2019-05-02T02:34:21.520Z,43.35
2019-05-02T02:39:19.582Z,48.40
2019-05-02T02:41:52.003Z,44.20
2019-05-02T02:44:33.923Z,45.30
2019-05-02T02:47:05.168Z,51.08
2019-05-02T02:49:34.957Z,45.78
2019-05-02T02:52:06.847Z,43.42
2019-05-02T02:54:42.740Z,46.20
2019-05-02T02:59:36.465Z,42.93
2019-05-02T03:02:10.132Z,43.35
2019-05-02T03:04:44.120Z,44.25
2019-05-02T03:09:37.836Z,41.63
2019-05-02T03:12:41.576Z,38.80
2019-05-02T03:15:21.090Z,43.98
2019-05-02T03:17:46.859Z,39.85
2019-05-02T03:20:16.642Z,38.78
2019-05-02T03:22:46.481Z,39.13
2019-05-02T03:25:18.329Z,36.17
2019-05-02T03:30:31.012Z,39.30
2019-05-02T03:33:02.487Z,37.33
2019-05-02T03:35:40.301Z,35.52
2019-05-02T03:37:53.312Z,40.50
2019-05-02T03:40:23.297Z,36.40
2019-05-02T03:42:53.175Z,37.10
2019-05-02T03:45:23.106Z,35.50
2019-05-02T03:47:52.908Z,33.40
2019-05-02T03:50:31.393Z,37.20
2019-05-02T03:52:54.278Z,36.68
2019-05-02T03:55:30.758Z,33.88
2019-05-02T03:57:56.458Z,34.63
2019-05-02T04:00:26.377Z,37.15
2019-05-02T04:03:00.402Z,40.83
2019-05-02T04:05:33.688Z,35.10
2019-05-02T04:07:59.738Z,36.45
2019-05-02T04:11:06.458Z,34.10
2019-05-02T04:13:38.168Z,33.33
2019-05-02T04:16:14.594Z,33.83
2019-05-02T04:18:39.761Z,34.50
2019-05-02T04:21:09.564Z,32.65
2019-05-02T04:23:39.544Z,33.90
2019-05-02T04:26:12.821Z,29.48
2019-05-02T04:28:45.570Z,34.85
2019-05-02T04:31:12.532Z,28.85
2019-05-02T04:33:42.607Z,33.60
2019-05-02T04:36:15.274Z,29.23
2019-05-02T04:41:21.424Z,27.20
2019-05-02T04:46:22.368Z,27.48
2019-05-02T04:48:52.018Z,28.00
2019-05-02T04:51:20.486Z,24.12
2019-05-02T04:56:20.029Z,25.75
2019-05-02T04:58:49.842Z,25.12
2019-05-02T05:01:21.389Z,26.07
2019-05-02T05:03:58.358Z,25.70
2019-05-02T05:06:22.562Z,26.68
2019-05-02T05:08:52.392Z,22.65
2019-05-02T05:11:25.019Z,22.17
2019-05-02T05:16:23.894Z,28.57
2019-05-02T05:18:53.693Z,25.40
2019-05-02T05:21:24.679Z,27.75
2019-05-02T05:24:13.874Z,27.37
2019-05-02T05:26:44.935Z,27.58
2019-05-02T05:29:19.373Z,29.23
2019-05-02T05:31:48.157Z,30.05
2019-05-02T05:36:48.138Z,28.70
2019-05-02T05:39:18.065Z,32.75
2019-05-02T05:41:52.194Z,31.17
2019-05-02T05:46:49.489Z,30.60
2019-05-02T05:51:54.223Z,28.75
2019-05-02T05:56:49.765Z,30.08
2019-05-02T05:59:22.245Z,29.05
2019-05-02T06:01:51.642Z,29.18
2019-05-02T06:04:23.617Z,28.83
2019-05-02T06:06:54.052Z,30.52
2019-05-02T06:11:55.438Z,34.92
2019-05-02T06:14:26.316Z,34.88
2019-05-02T06:16:56.342Z,34.33
2019-05-02T06:19:26.173Z,36.65
2019-05-02T06:21:55.961Z,38.40
2019-05-02T06:24:25.786Z,36.83
2019-05-02T06:26:55.559Z,39.73
2019-05-02T06:29:25.328Z,39.03
2019-05-02T06:31:55.167Z,39.13
2019-05-02T06:34:24.964Z,39.58
2019-05-02T06:36:54.750Z,37.33
2019-05-02T06:39:27.184Z,40.65
2019-05-02T06:44:26.352Z,39.08
2019-05-02T06:46:59.114Z,41.42
2019-05-02T06:49:27.611Z,41.05
2019-05-02T06:51:57.687Z,41.60
2019-05-02T06:54:27.719Z,39.55
2019-05-02T06:56:57.529Z,39.75
2019-05-02T06:59:27.357Z,41.85
2019-05-02T07:01:58.670Z,39.48
2019-05-02T07:04:28.692Z,39.75
2019-05-02T07:06:59.689Z,43.48
2019-05-02T07:09:40.330Z,38.67
2019-05-02T07:12:01.728Z,40.52
2019-05-02T07:14:31.753Z,45.92
2019-05-02T07:17:20.374Z,38.53
2019-05-02T07:19:53.088Z,37.78
2019-05-02T07:22:22.872Z,38.88
2019-05-02T07:24:52.652Z,38.75
2019-05-02T07:27:22.419Z,40.60
2019-05-02T07:29:57.651Z,40.40
2019-05-02T07:32:24.866Z,37.98
2019-05-02T07:37:23.762Z,37.83
2019-05-02T07:39:53.601Z,37.50
2019-05-02T07:42:23.374Z,35.95
2019-05-02T07:44:53.172Z,34.00
2019-05-02T07:47:22.960Z,34.23
2019-05-02T07:49:52.740Z,33.85
2019-05-02T07:52:22.589Z,33.10
2019-05-02T07:54:56.250Z,35.17
2019-05-02T07:59:55.058Z,34.18
2019-05-02T08:02:26.420Z,36.45
2019-05-02T08:04:56.375Z,35.40
2019-05-02T08:07:33.869Z,31.27
2019-05-02T08:09:57.574Z,35.38
2019-05-02T08:12:27.412Z,38.55
2019-05-02T08:15:00.283Z,29.52
2019-05-02T08:17:28.686Z,35.83
2019-05-02T08:19:58.482Z,34.03
2019-05-02T08:22:28.281Z,35.30
2019-05-02T08:24:58.059Z,33.85
2019-05-02T08:27:42.396Z,33.40
2019-05-02T08:30:21.366Z,38.17
2019-05-02T08:32:51.251Z,37.15
2019-05-02T08:35:21.019Z,37.53
2019-05-02T08:37:50.840Z,35.55
2019-05-02T08:40:20.676Z,37.88
2019-05-02T08:42:50.403Z,32.95
2019-05-02T08:45:20.199Z,30.57
2019-05-02T08:47:50.016Z,34.90
2019-05-02T08:50:19.997Z,34.48
2019-05-02T08:52:49.833Z,29.65
2019-05-02T08:55:19.566Z,33.73
2019-05-02T08:57:49.356Z,28.42
2019-05-02T09:00:19.358Z,32.78
2019-05-02T09:02:49.150Z,26.90
2019-05-02T09:05:19.058Z,30.32
2019-05-02T09:07:48.858Z,27.00
2019-05-02T09:10:18.700Z,23.18
2019-05-02T09:12:48.532Z,27.27
2019-05-02T09:15:18.382Z,28.35
2019-05-02T09:17:54.868Z,24.63
2019-05-02T09:20:20.837Z,26.87
2019-05-02T09:22:55.697Z,28.67
2019-05-02T09:25:22.887Z,28.15
2019-05-02T09:27:52.831Z,31.37
2019-05-02T09:30:25.730Z,24.63
2019-05-02T09:32:57.257Z,26.80
2019-05-02T09:35:25.845Z,29.80
2019-05-02T09:37:55.656Z,25.48
2019-05-02T09:40:25.475Z,25.82
2019-05-02T09:43:00.058Z,25.50
2019-05-02T09:48:07.138Z,23.90
2019-05-02T09:50:36.569Z,25.35
2019-05-02T09:55:34.597Z,29.20
2019-05-02T09:58:04.494Z,25.88
2019-05-02T10:01:02.546Z,25.97
2019-05-02T10:03:32.627Z,29.60
2019-05-02T10:06:03.111Z,27.70
2019-05-02T10:08:33.234Z,32.35
2019-05-02T10:11:03.080Z,30.08
2019-05-02T10:13:33.899Z,28.52
2019-05-02T10:16:03.789Z,38.92
2019-05-02T10:18:33.569Z,31.42
2019-05-02T10:21:07.968Z,33.20
2019-05-02T10:23:34.917Z,30.08
2019-05-02T10:26:05.061Z,28.77
2019-05-02T10:28:34.833Z,28.17
2019-05-02T10:31:04.781Z,31.50
2019-05-02T10:33:37.583Z,31.57
2019-05-02T10:38:34.758Z,31.35
2019-05-02T10:41:04.917Z,32.60
2019-05-02T10:43:34.781Z,32.23
2019-05-02T10:46:14.752Z,43.00
2019-05-02T10:48:52.520Z,30.80
2019-05-02T10:51:43.432Z,31.42
2019-05-02T10:54:09.044Z,33.02
2019-05-02T10:56:38.861Z,33.10
2019-05-02T10:59:08.652Z,40.52
2019-05-02T11:02:09.337Z,34.65
2019-05-02T11:04:43.238Z,35.15
2019-05-02T11:07:17.089Z,35.58
2019-05-02T11:09:44.482Z,34.30
2019-05-02T11:12:24.292Z,37.73
2019-05-02T11:14:57.870Z,38.05
2019-05-02T11:17:36.401Z,36.42
2019-05-02T11:20:09.854Z,37.35
2019-05-02T11:22:40.149Z,40.33
2019-05-02T11:25:11.988Z,41.50
2019-05-02T11:27:41.861Z,35.60
2019-05-02T11:30:16.888Z,34.00
2019-05-02T11:32:43.898Z,38.92
2019-05-02T11:35:13.784Z,43.58
2019-05-02T11:37:43.598Z,42.03
2019-05-02T11:40:13.507Z,39.63
2019-05-02T11:42:43.315Z,38.42
2019-05-02T11:45:13.291Z,42.13
2019-05-02T11:47:43.105Z,44.60
2019-05-02T11:50:12.970Z,40.78
2019-05-02T11:52:42.781Z,41.83
2019-05-02T11:55:13.097Z,39.25
2019-05-02T11:57:43.104Z,39.60
2019-05-02T12:00:13.806Z,42.30
2019-05-02T12:03:02.469Z,38.95
2019-05-02T12:05:39.734Z,43.17
2019-05-02T12:08:11.631Z,43.58
2019-05-02T12:10:42.237Z,36.13
2019-05-02T12:15:44.337Z,38.67
2019-05-02T12:18:14.039Z,36.77
2019-05-02T12:20:43.822Z,39.15
2019-05-02T12:23:13.905Z,40.35
2019-05-02T12:25:43.767Z,37.20
2019-05-02T12:28:13.496Z,36.17
2019-05-02T12:30:43.359Z,37.48
2019-05-02T12:33:13.913Z,32.50
2019-05-02T12:35:43.714Z,43.70
2019-05-02T12:38:13.585Z,39.40
2019-05-02T12:40:43.370Z,37.25
2019-05-02T12:43:13.172Z,38.30
2019-05-02T12:45:43.143Z,37.50
2019-05-02T12:48:13.166Z,39.63
2019-05-02T12:50:43.017Z,38.02
2019-05-02T12:53:12.834Z,45.12
2019-05-02T12:55:42.565Z,42.40
2019-05-02T12:58:12.670Z,41.85
2019-05-02T13:00:43.228Z,39.95
2019-05-02T13:03:31.750Z,39.58
2019-05-02T13:06:03.066Z,40.38
2019-05-02T13:11:13.903Z,43.17
2019-05-02T13:13:43.690Z,39.48
2019-05-02T13:16:13.573Z,35.03
2019-05-02T13:18:43.481Z,37.17
2019-05-02T13:21:16.896Z,38.08
2019-05-02T13:24:13.511Z,36.60
2019-05-02T13:26:43.265Z,37.63
2019-05-02T13:29:13.203Z,36.70
2019-05-02T13:31:49.865Z,40.45
2019-05-02T13:34:41.372Z,37.28
2019-05-02T13:37:13.458Z,35.00
2019-05-02T13:39:50.642Z,34.38
2019-05-02T13:42:21.975Z,32.05
2019-05-02T13:44:58.812Z,34.83
2019-05-02T13:47:29.160Z,36.63
2019-05-02T13:50:00.962Z,33.80
2019-05-02T13:52:30.595Z,39.75
2019-05-02T13:55:01.833Z,36.13
2019-05-02T13:57:35.061Z,33.48
2019-05-02T14:00:05.585Z,35.90
2019-05-02T14:02:42.487Z,38.65
2019-05-02T14:05:13.105Z,37.23
2019-05-02T14:07:48.246Z,38.73
2019-05-02T14:10:34.102Z,35.55
2019-05-02T14:13:04.153Z,40.98
2019-05-02T14:15:38.424Z,40.05
2019-05-02T14:18:08.819Z,38.70
2019-05-02T14:20:38.956Z,41.50
2019-05-02T14:23:08.703Z,42.23
2019-05-02T14:25:38.669Z,38.30
2019-05-02T14:28:08.497Z,42.50
2019-05-02T14:30:43.279Z,46.08
2019-05-02T14:33:16.064Z,43.80
2019-05-02T14:35:45.993Z,47.13
2019-05-02T14:38:16.644Z,42.60
2019-05-02T14:41:18.493Z,44.48
2019-05-02T14:43:53.879Z,47.70
2019-05-02T14:46:35.386Z,46.83
2019-05-02T14:48:59.051Z,47.88
2019-05-02T14:51:29.320Z,49.15
2019-05-02T14:54:03.656Z,46.55
2019-05-02T14:56:52.178Z,48.28
2019-05-02T14:59:23.591Z,38.40
2019-05-02T15:02:03.004Z,41.33
2019-05-02T15:04:32.120Z,44.15
2019-05-02T15:07:03.353Z,47.38
2019-05-02T15:09:36.159Z,40.05
2019-05-02T15:12:14.093Z,40.83
2019-05-02T15:14:39.443Z,40.12
2019-05-02T15:17:09.532Z,43.00
2019-05-02T15:19:42.632Z,38.58
2019-05-02T15:22:13.430Z,41.80
2019-05-02T15:24:44.339Z,43.40
2019-05-02T15:27:17.709Z,34.05
2019-05-02T15:29:55.413Z,44.23
2019-05-02T15:32:44.943Z,41.83
2019-05-02T15:35:52.730Z,40.48
2019-05-02T15:38:27.729Z,45.07
2019-05-02T15:40:59.223Z,46.98
2019-05-02T15:43:31.795Z,43.73
2019-05-02T15:46:03.929Z,39.80
2019-05-02T15:48:35.903Z,41.92
2019-05-02T15:51:08.958Z,39.33
2019-05-02T15:53:49.673Z,46.10
2019-05-02T15:56:23.721Z,39.08
2019-05-02T15:58:57.949Z,43.60
2019-05-02T16:01:48.378Z,40.60
2019-05-02T16:04:25.656Z,42.35
2019-05-02T16:07:00.474Z,43.87
2019-05-02T16:09:29.410Z,41.10
2019-05-02T16:12:02.943Z,47.30
2019-05-02T16:14:36.012Z,50.48
2019-05-02T16:17:07.930Z,50.25
2019-05-02T16:19:44.873Z,40.38
2019-05-02T16:22:22.613Z,46.85
2019-05-02T16:24:56.638Z,44.15
2019-05-02T16:27:48.470Z,47.40
2019-05-02T16:30:23.329Z,47.83
2019-05-02T16:33:02.472Z,48.92
2019-05-02T16:35:35.482Z,50.35
2019-05-02T16:38:07.884Z,52.65
2019-05-02T16:40:41.899Z,47.38
2019-05-02T16:43:13.844Z,52.67
2019-05-02T16:45:46.234Z,53.63
2019-05-02T16:48:18.534Z,57.20
2019-05-02T16:50:50.863Z,53.48
2019-05-02T16:53:26.208Z,59.05
2019-05-02T16:55:58.311Z,55.03
2019-05-02T16:58:31.956Z,65.28
2019-05-02T17:01:05.954Z,61.83
2019-05-02T17:03:38.226Z,64.40
2019-05-02T17:06:12.386Z,59.90
2019-05-02T17:09:21.715Z,62.35
2019-05-02T17:11:54.181Z,69.25
2019-05-02T17:14:26.613Z,62.05
2019-05-02T17:17:01.392Z,62.80
2019-05-02T17:19:35.184Z,62.30
2019-05-02T17:22:08.863Z,62.83
2019-05-02T17:24:41.880Z,63.58
2019-05-02T17:27:20.469Z,63.28
2019-05-02T17:29:52.503Z,59.15
2019-05-02T17:32:24.556Z,64.32
2019-05-02T17:34:57.506Z,67.82
2019-05-02T17:37:32.451Z,62.00
2019-05-02T17:40:05.062Z,59.80
2019-05-02T17:42:38.755Z,60.15
2019-05-02T17:45:12.771Z,62.93
2019-05-02T17:47:47.280Z,60.73
2019-05-02T17:50:54.329Z,60.67
2019-05-02T17:53:24.892Z,64.00
2019-05-02T17:55:58.854Z,67.35
2019-05-02T17:58:32.621Z,68.33
2019-05-02T18:01:06.837Z,67.82
2019-05-02T18:03:43.264Z,73.33
2019-05-02T18:06:17.366Z,70.78
2019-05-02T18:08:51.672Z,73.85
2019-05-02T18:11:24.241Z,72.97
2019-05-02T18:13:59.464Z,72.67
2019-05-02T18:16:32.356Z,74.40
2019-05-02T18:19:06.093Z,73.83
2019-05-02T18:21:41.811Z,76.07
2019-05-02T18:24:14.623Z,78.57
2019-05-02T18:26:47.659Z,73.70
2019-05-02T18:29:22.121Z,73.80
2019-05-02T18:31:54.607Z,68.12
2019-05-02T18:34:28.005Z,71.37
2019-05-02T18:37:06.141Z,75.67
2019-05-02T18:39:44.736Z,76.45
2019-05-02T18:42:16.527Z,72.10
2019-05-02T18:44:52.974Z,74.60
2019-05-02T18:47:24.620Z,70.00
2019-05-02T18:50:01.892Z,77.22
2019-05-02T18:52:38.046Z,75.70
2019-05-02T18:55:06.201Z,77.10
2019-05-02T18:57:39.093Z,68.17
2019-05-02T19:00:13.402Z,64.77
2019-05-02T19:02:48.270Z,60.48
2019-05-02T19:05:22.882Z,52.48
2019-05-02T19:07:56.535Z,47.35
2019-05-02T19:10:29.262Z,47.67
2019-05-02T19:13:05.902Z,44.18
2019-05-02T19:15:39.699Z,46.55
2019-05-02T19:18:18.090Z,39.30
2019-05-02T19:21:05.964Z,36.80
2019-05-02T19:23:42.478Z,39.35
2019-05-02T19:26:15.391Z,39.42
2019-05-02T19:28:54.029Z,35.85
2019-05-02T19:31:36.727Z,42.17
2019-05-02T19:34:08.294Z,42.65
2019-05-02T19:36:44.672Z,44.20
2019-05-02T19:39:17.505Z,48.10
2019-05-02T19:41:54.258Z,50.55
2019-05-02T19:44:28.909Z,45.83
2019-05-02T19:47:02.517Z,47.27
2019-05-02T19:49:37.715Z,49.80
2019-05-02T19:52:10.508Z,49.95
2019-05-02T19:54:43.648Z,53.28
2019-05-02T19:57:17.214Z,53.42
2019-05-02T19:59:52.472Z,54.50
2019-05-02T20:02:25.456Z,58.58
2019-05-02T20:04:58.771Z,57.73
2019-05-02T20:07:32.454Z,55.35
2019-05-02T20:10:08.364Z,63.68
2019-05-02T20:12:47.916Z,65.57
2019-05-02T20:15:17.039Z,57.00
2019-05-02T20:17:53.452Z,58.33
2019-05-02T20:20:54.320Z,61.30
2019-05-02T20:23:31.585Z,62.23
2019-05-02T20:26:00.487Z,66.57
2019-05-02T20:28:32.879Z,66.57
2019-05-02T20:31:05.347Z,69.92
2019-05-02T20:33:37.536Z,67.90
2019-05-02T20:36:09.920Z,67.12
2019-05-02T20:38:42.002Z,65.65
2019-05-02T20:41:14.413Z,58.63
2019-05-02T20:43:46.556Z,62.53
2019-05-02T20:46:18.749Z,58.28
2019-05-02T20:48:52.385Z,60.85
2019-05-02T20:51:24.204Z,55.58
2019-05-02T20:53:56.597Z,55.40
2019-05-02T20:56:28.965Z,55.12
2019-05-02T20:59:02.023Z,56.92
2019-05-02T21:01:33.777Z,48.40
2019-05-02T21:04:05.877Z,47.67
2019-05-02T21:07:05.479Z,46.45
2019-05-02T21:10:07.816Z,45.92
2019-05-02T21:12:41.857Z,45.75
2019-05-02T21:15:13.027Z,41.10
2019-05-02T21:17:44.616Z,39.08
2019-05-02T21:20:16.206Z,38.63
2019-05-02T21:22:47.588Z,35.20
2019-05-02T21:27:47.346Z,38.70
2019-05-02T21:30:22.992Z,39.67
2019-05-02T21:32:54.812Z,41.90
2019-05-02T21:35:24.767Z,38.20
2019-05-02T21:37:55.072Z,34.55
2019-05-02T21:40:25.865Z,35.13
2019-05-02T21:42:56.029Z,30.48
2019-05-02T21:45:26.096Z,29.63
2019-05-02T21:47:55.962Z,28.65
2019-05-02T21:50:42.661Z,25.65
2019-05-02T21:53:23.848Z,22.20
2019-05-02T21:56:08.986Z,22.37
2019-05-02T21:58:38.847Z,19.48
2019-05-02T22:01:13.566Z,21.93
2019-05-02T22:03:43.447Z,21.95
2019-05-02T22:06:13.349Z,19.10
2019-05-02T22:08:43.148Z,22.65
2019-05-02T22:11:12.979Z,15.85
2019-05-02T22:13:42.809Z,17.32
2019-05-02T22:16:13.051Z,16.87
2019-05-02T22:18:43.078Z,16.62
2019-05-02T22:21:12.945Z,17.75
2019-05-02T22:23:42.746Z,14.98
2019-05-02T22:26:12.901Z,15.45
2019-05-02T22:28:42.699Z,13.38
2019-05-02T22:31:12.605Z,14.15
2019-05-02T22:33:44.687Z,10.43
2019-05-02T22:36:13.892Z,14.50
2019-05-02T22:39:02.584Z,10.30
2019-05-02T22:41:32.671Z,15.75
2019-05-02T22:44:02.595Z,11.60
2019-05-02T22:46:43.415Z,10.25
2019-05-02T22:49:15.085Z,8.00
2019-05-02T22:51:45.146Z,9.40
2019-05-02T22:54:26.694Z,10.38
2019-05-02T22:56:46.541Z,6.42
2019-05-02T22:59:16.360Z,9.13
2019-05-02T23:01:46.214Z,7.03
2019-05-02T23:04:15.985Z,10.82
2019-05-02T23:06:45.942Z,8.18
2019-05-02T23:09:15.918Z,6.92
2019-05-02T23:11:45.745Z,6.60
2019-05-02T23:14:15.634Z,8.75
2019-05-02T23:16:45.472Z,8.88
2019-05-02T23:19:15.289Z,5.00
2019-05-02T23:21:45.110Z,8.05
2019-05-02T23:24:37.042Z,9.85
2019-05-02T23:27:22.279Z,6.85
2019-05-02T23:29:52.192Z,7.60
2019-05-02T23:32:23.783Z,7.55
2019-05-02T23:34:53.471Z,10.03
2019-05-02T23:37:23.368Z,7.15
2019-05-02T23:39:53.160Z,7.72
2019-05-02T23:42:23.019Z,9.65
2019-05-02T23:44:52.930Z,7.47
2019-05-02T23:47:22.773Z,9.18
2019-05-02T23:49:52.544Z,8.28
2019-05-02T23:52:22.568Z,9.08
2019-05-02T23:54:52.672Z,9.50
2019-05-02T23:57:23.093Z,13.40
2019-05-02T23:59:53.061Z,5.03
